Time;durP1;ratioP1;P1;durP2;ratioP2;P2;SDS_P1;SDS_P2;PMS_P1;PMS_P2;Temp;Humidity;BMP_temperature;BMP_pressure;BME280_temperature;BME280_humidity;BME280_pressure;Samples;Min_cycle;Max_cycle;Signal;HPM_P1;HPM_P2
2022/07/30 00:02:08;;;;;;;10.80;3.85;;;26.60;73.40;;;;;;6246425;23;19996;-70
2022/07/30 00:04:34;;;;;;;12.75;4.50;;;26.60;73.00;;;;;;6246493;22;20016;-68
2022/07/30 00:07:02;;;;;;;7.93;3.80;;;26.50;72.80;;;;;;6247076;23;20402;-69
2022/07/30 00:09:28;;;;;;;5.15;3.58;;;26.60;72.70;;;;;;6246448;22;20012;-75
2022/07/30 00:11:54;;;;;;;10.60;3.70;;;26.50;72.90;;;;;;6247190;22;20045;-73
2022/07/30 00:14:20;;;;;;;7.55;3.60;;;26.50;72.00;;;;;;6246780;23;19996;-69
2022/07/30 00:16:45;;;;;;;9.63;3.38;;;26.40;72.10;;;;;;6246443;23;20032;-67
2022/07/30 00:19:11;;;;;;;8.18;3.40;;;26.50;72.80;;;;;;6245806;23;20012;-68
2022/07/30 00:21:37;;;;;;;7.28;3.20;;;26.40;72.10;;;;;;6246637;22;20058;-74
2022/07/30 00:24:03;;;;;;;7.65;3.40;;;26.30;73.70;;;;;;6246477;22;20431;-68
2022/07/30 00:26:29;;;;;;;9.52;3.75;;;26.20;73.30;;;;;;6245355;23;20000;-68
2022/07/30 00:28:55;;;;;;;5.60;3.03;;;26.10;73.90;;;;;;6246374;23;20322;-68
2022/07/30 00:31:20;;;;;;;4.82;3.20;;;26.10;73.40;;;;;;6245917;22;20008;-74
2022/07/30 00:33:46;;;;;;;4.15;3.08;;;26.00;72.30;;;;;;6245584;23;20004;-72
2022/07/30 00:36:12;;;;;;;3.05;2.70;;;26.00;71.40;;;;;;6246481;23;19996;-68
2022/07/30 00:38:37;;;;;;;4.45;3.00;;;26.00;71.90;;;;;;6245843;23;20445;-69
2022/07/30 00:41:03;;;;;;;6.97;3.22;;;26.00;72.80;;;;;;6245239;23;20095;-68
2022/07/30 00:43:29;;;;;;;3.80;3.00;;;26.00;72.70;;;;;;6245728;23;20000;-68
2022/07/30 00:45:54;;;;;;;5.32;3.45;;;26.00;72.40;;;;;;6246370;22;20016;-72
2022/07/30 00:48:20;;;;;;;7.15;3.20;;;26.00;73.20;;;;;;6246509;22;20012;-71
2022/07/30 00:50:46;;;;;;;7.80;3.95;;;26.00;73.10;;;;;;6245689;22;20012;-69
2022/07/30 00:53:11;;;;;;;7.95;4.05;;;25.90;73.40;;;;;;6246463;22;20000;-69
2022/07/30 00:55:37;;;;;;;9.32;4.10;;;25.90;74.50;;;;;;6245574;23;20001;-68
2022/07/30 00:58:03;;;;;;;12.10;4.55;;;25.90;74.30;;;;;;6244018;22;20011;-69
2022/07/30 01:00:28;;;;;;;6.05;4.00;;;25.90;74.20;;;;;;6242411;23;20093;-68
2022/07/30 01:02:54;;;;;;;8.52;4.07;;;25.80;74.40;;;;;;6242444;23;20004;-69
2022/07/30 01:05:21;;;;;;;21.83;5.72;;;25.80;74.40;;;;;;6244194;22;20446;-69
2022/07/30 01:07:47;;;;;;;10.07;4.68;;;25.80;74.20;;;;;;6245449;23;20000;-68
2022/07/30 01:10:14;;;;;;;9.10;4.25;;;25.70;74.20;;;;;;6246156;22;20008;-68
2022/07/30 01:12:41;;;;;;;10.90;5.25;;;25.80;74.30;;;;;;6246144;22;20008;-69
2022/07/30 01:15:08;;;;;;;9.13;4.53;;;25.80;74.20;;;;;;6245780;22;20032;-69
2022/07/30 01:17:35;;;;;;;10.68;5.03;;;25.70;73.70;;;;;;6245201;22;20004;-69
2022/07/30 01:20:24;;;;;;;14.80;4.63;;;25.70;74.20;;;;;;6244866;22;20019;-67
2022/07/30 01:23:13;;;;;;;8.93;4.60;;;25.70;74.10;;;;;;6240308;23;20032;-68
2022/07/30 01:25:51;;;;;;;13.35;5.53;;;25.60;74.40;;;;;;6245413;22;20075;-70
2022/07/30 01:28:21;;;;;;;7.57;4.97;;;25.60;74.60;;;;;;6245068;22;20043;-73
2022/07/30 01:30:47;;;;;;;8.25;5.18;;;25.50;75.00;;;;;;6245962;22;20320;-70
2022/07/30 01:33:17;;;;;;;9.63;4.50;;;25.50;75.20;;;;;;6245712;22;20007;-76
2022/07/30 01:35:45;;;;;;;6.25;4.38;;;25.50;75.10;;;;;;6245532;22;20094;-69
2022/07/30 01:38:15;;;;;;;7.00;4.65;;;25.50;75.40;;;;;;6245682;22;20008;-69
2022/07/30 01:40:43;;;;;;;8.07;4.95;;;25.50;75.20;;;;;;6245832;22;20032;-75
2022/07/30 01:43:11;;;;;;;8.73;4.85;;;25.50;75.50;;;;;;6245492;22;20054;-69
2022/07/30 01:45:38;;;;;;;11.32;4.97;;;25.40;75.40;;;;;;6245690;22;20020;-70
2022/07/30 01:48:07;;;;;;;11.90;4.97;;;25.40;76.20;;;;;;6245966;22;20009;-76
2022/07/30 01:50:34;;;;;;;8.88;5.47;;;25.40;75.70;;;;;;6245787;22;20382;-69
2022/07/30 01:53:01;;;;;;;14.60;4.75;;;25.40;75.60;;;;;;6245951;22;20015;-73
2022/07/30 01:55:32;;;;;;;9.75;4.57;;;25.40;75.00;;;;;;6245598;22;20067;-68
2022/07/30 01:57:59;;;;;;;8.55;4.70;;;25.40;74.90;;;;;;6246000;22;20374;-68
2022/07/30 02:00:29;;;;;;;10.07;5.00;;;25.40;75.00;;;;;;6245980;22;20020;-69
2022/07/30 02:02:56;;;;;;;5.55;4.53;;;25.40;75.10;;;;;;6245188;22;20008;-74
2022/07/30 02:05:22;;;;;;;14.15;4.70;;;25.30;75.40;;;;;;6245089;22;20004;-74
2022/07/30 02:07:50;;;;;;;8.20;4.93;;;25.30;76.60;;;;;;6245583;22;20438;-75
2022/07/30 02:10:32;;;;;;;8.40;5.18;;;25.20;76.70;;;;;;6245976;22;20000;-69
2022/07/30 02:13:00;;;;;;;6.72;4.97;;;25.20;76.70;;;;;;6245937;22;20000;-75
2022/07/30 02:15:37;;;;;;;6.18;4.60;;;25.20;76.00;;;;;;6246177;22;20018;-72
2022/07/30 02:18:15;;;;;;;8.65;4.57;;;25.20;76.10;;;;;;6245620;22;20028;-76
2022/07/30 02:20:45;;;;;;;9.68;4.50;;;25.20;75.40;;;;;;6245907;22;20031;-75
2022/07/30 02:23:14;;;;;;;5.47;4.10;;;25.20;75.60;;;;;;6245327;22;20007;-69
2022/07/30 02:25:45;;;;;;;6.45;4.25;;;25.20;74.70;;;;;;6245457;22;20423;-75
2022/07/30 02:28:14;;;;;;;6.90;4.20;;;25.10;74.50;;;;;;6244912;22;20026;-76
2022/07/30 02:31:00;;;;;;;6.05;3.63;;;25.10;74.30;;;;;;6245203;22;20000;-69
2022/07/30 02:33:34;;;;;;;4.57;3.92;;;25.10;74.80;;;;;;6245602;23;20042;-69
2022/07/30 02:36:02;;;;;;;5.28;3.80;;;25.10;74.60;;;;;;6245796;22;20298;-68
2022/07/30 02:38:29;;;;;;;6.65;4.13;;;25.00;74.80;;;;;;6243872;23;20382;-69
2022/07/30 02:40:58;;;;;;;5.53;4.05;;;25.00;74.90;;;;;;6245419;22;20040;-70
2022/07/30 02:43:25;;;;;;;5.32;3.97;;;25.00;76.00;;;;;;6245376;22;20024;-71
2022/07/30 02:45:52;;;;;;;7.82;4.18;;;25.00;76.00;;;;;;6245128;22;20015;-69
2022/07/30 02:48:21;;;;;;;5.53;4.10;;;25.00;76.00;;;;;;6245876;22;20031;-76
2022/07/30 02:50:50;;;;;;;6.15;3.80;;;25.00;75.80;;;;;;6245867;22;20092;-69
2022/07/30 02:53:18;;;;;;;5.43;3.60;;;24.90;76.20;;;;;;6245745;22;20051;-69
2022/07/30 02:55:45;;;;;;;5.20;3.60;;;24.80;76.60;;;;;;6245289;22;20004;-76
2022/07/30 02:58:19;;;;;;;8.00;3.85;;;24.90;77.40;;;;;;6245270;22;20042;-68
2022/07/30 03:00:47;;;;;;;10.77;4.10;;;24.90;77.70;;;;;;6245587;22;20015;-71
2022/07/30 03:03:15;;;;;;;7.00;4.15;;;24.90;77.60;;;;;;6245391;22;20058;-74
2022/07/30 03:05:41;;;;;;;10.88;5.05;;;24.80;77.90;;;;;;6245386;22;20146;-75
2022/07/30 03:08:08;;;;;;;7.85;4.57;;;24.80;78.60;;;;;;6245271;22;20457;-69
2022/07/30 03:10:35;;;;;;;13.52;4.63;;;24.80;79.10;;;;;;6245232;22;20004;-75
2022/07/30 03:13:04;;;;;;;6.63;4.70;;;24.80;79.50;;;;;;6245673;22;20007;-75
2022/07/30 03:15:34;;;;;;;8.43;4.40;;;24.80;79.70;;;;;;6245076;22;20502;-74
2022/07/30 03:18:01;;;;;;;8.15;4.28;;;24.90;79.40;;;;;;6244926;22;20001;-72
2022/07/30 03:20:30;;;;;;;6.75;4.10;;;24.80;78.50;;;;;;6244922;22;20047;-68
2022/07/30 03:22:58;;;;;;;7.60;4.20;;;24.80;78.50;;;;;;6245056;22;20004;-72
2022/07/30 03:25:29;;;;;;;5.75;4.03;;;24.80;78.80;;;;;;6245111;22;20427;-76
2022/07/30 03:27:56;;;;;;;6.30;4.28;;;24.80;78.60;;;;;;6245094;22;20028;-73
2022/07/30 03:30:26;;;;;;;7.38;3.75;;;24.80;78.40;;;;;;6245759;22;20012;-69
2022/07/30 03:32:54;;;;;;;8.10;4.30;;;24.70;77.40;;;;;;6245250;22;20013;-69
2022/07/30 03:35:23;;;;;;;7.70;4.20;;;24.50;77.60;;;;;;6245286;22;19992;-76
2022/07/30 03:37:50;;;;;;;5.90;4.47;;;24.50;79.20;;;;;;6245595;22;20067;-69
2022/07/30 03:40:17;;;;;;;6.43;4.25;;;24.50;79.70;;;;;;6245455;22;20433;-69
2022/07/30 03:42:44;;;;;;;9.10;4.80;;;24.50;79.40;;;;;;6245102;22;20004;-69
2022/07/30 03:45:12;;;;;;;8.98;4.97;;;24.40;79.80;;;;;;6245245;22;20000;-72
2022/07/30 03:47:40;;;;;;;9.45;5.40;;;24.50;80.40;;;;;;6245061;22;20004;-76
2022/07/30 03:50:07;;;;;;;8.63;5.32;;;24.50;80.40;;;;;;6245074;22;20004;-72
2022/07/30 03:52:34;;;;;;;7.55;5.43;;;24.40;79.70;;;;;;6246099;22;20102;-76
2022/07/30 03:55:01;;;;;;;11.18;5.75;;;24.30;80.30;;;;;;6247008;22;20003;-69
2022/07/30 03:57:27;;;;;;;8.07;4.88;;;24.20;80.90;;;;;;6247462;22;20013;-69
2022/07/30 03:59:53;;;;;;;6.35;4.80;;;24.20;80.70;;;;;;6247013;23;20368;-76
2022/07/30 04:02:19;;;;;;;10.43;4.82;;;24.10;81.00;;;;;;6247089;22;20001;-75
2022/07/30 04:04:44;;;;;;;7.50;4.60;;;24.10;80.80;;;;;;6247257;22;20014;-69
2022/07/30 04:07:10;;;;;;;11.15;4.40;;;24.00;81.00;;;;;;6247305;22;20004;-68
2022/07/30 04:09:36;;;;;;;7.93;4.03;;;24.00;80.90;;;;;;6246939;23;20351;-74
2022/07/30 04:12:02;;;;;;;10.90;4.13;;;24.00;81.40;;;;;;6246517;23;20008;-73
2022/07/30 04:14:48;;;;;;;7.97;4.03;;;24.10;81.20;;;;;;6246939;23;20004;-75
2022/07/30 04:17:40;;;;;;;6.80;3.40;;;24.10;81.10;;;;;;6247063;23;20004;-71
2022/07/30 04:20:14;;;;;;;12.80;5.10;;;24.20;80.70;;;;;;6247044;22;20339;-71
2022/07/30 04:22:41;;;;;;;5.60;3.78;;;24.20;80.40;;;;;;6247027;22;19996;-85
2022/07/30 04:25:08;;;;;;;8.15;3.95;;;24.20;81.30;;;;;;6246482;22;20011;-85
2022/07/30 04:27:35;;;;;;;6.65;3.92;;;24.10;80.40;;;;;;6246647;22;20067;-70
2022/07/30 04:30:01;;;;;;;6.30;4.10;;;24.00;80.50;;;;;;6246531;22;20059;-71
2022/07/30 04:32:27;;;;;;;10.48;4.30;;;23.90;80.90;;;;;;6246585;22;19996;-85
2022/07/30 04:34:55;;;;;;;4.43;3.90;;;23.80;81.60;;;;;;6246262;22;20007;-85
2022/07/30 04:37:25;;;;;;;11.60;4.78;;;23.70;82.10;;;;;;6247167;22;20015;-85
2022/07/30 04:39:56;;;;;;;4.80;4.22;;;23.80;83.10;;;;;;6246842;22;20443;-81
2022/07/30 04:42:23;;;;;;;7.07;3.87;;;23.80;83.10;;;;;;6246556;22;20000;-80
2022/07/30 04:44:49;;;;;;;8.90;4.50;;;23.90;83.10;;;;;;6246504;22;20015;-82
2022/07/30 04:47:16;;;;;;;4.85;4.15;;;23.90;83.00;;;;;;6246668;22;20377;-88
2022/07/30 04:49:42;;;;;;;6.07;4.20;;;24.00;83.30;;;;;;6247094;22;20000;-87
2022/07/30 04:52:11;;;;;;;5.43;3.60;;;24.00;83.40;;;;;;6246698;22;20070;-88
2022/07/30 04:54:40;;;;;;;5.13;3.50;;;24.10;82.90;;;;;;6246868;22;20327;-70
2022/07/30 04:57:07;;;;;;;4.97;3.72;;;24.20;82.50;;;;;;6246734;22;20024;-85
2022/07/30 04:59:36;;;;;;;4.72;3.47;;;24.20;81.70;;;;;;6246605;22;20016;-86
2022/07/30 05:02:03;;;;;;;6.70;3.60;;;24.20;81.50;;;;;;6246893;22;20323;-72
2022/07/30 05:04:31;;;;;;;4.38;3.45;;;24.30;81.30;;;;;;6246771;22;20008;-71
2022/07/30 05:06:59;;;;;;;6.07;3.60;;;24.30;81.20;;;;;;6246843;22;19996;-71
2022/07/30 05:09:25;;;;;;;5.57;3.58;;;24.30;81.10;;;;;;6246624;22;20435;-76
2022/07/30 05:11:52;;;;;;;8.20;3.97;;;24.30;81.00;;;;;;6246391;22;20001;-78
2022/07/30 05:14:19;;;;;;;5.22;3.60;;;24.40;80.70;;;;;;6244841;23;20338;-71
2022/07/30 05:16:44;;;;;;;3.92;3.53;;;24.40;80.50;;;;;;6246393;22;20009;-72
2022/07/30 05:19:10;;;;;;;5.05;3.53;;;24.40;80.60;;;;;;6246134;23;20273;-86
2022/07/30 05:21:36;;;;;;;3.90;3.30;;;24.40;81.00;;;;;;6246839;23;20046;-71
2022/07/30 05:24:02;;;;;;;4.60;3.70;;;24.40;80.60;;;;;;6246944;23;20009;-85
2022/07/30 05:26:27;;;;;;;5.65;4.00;;;24.40;80.30;;;;;;6246611;22;20059;-85
2022/07/30 05:28:53;;;;;;;6.72;3.67;;;24.50;80.40;;;;;;6246532;22;20011;-85
2022/07/30 05:31:19;;;;;;;6.75;4.00;;;24.40;79.60;;;;;;6246351;23;20407;-80
2022/07/30 05:33:45;;;;;;;7.05;4.25;;;24.50;79.40;;;;;;6245886;23;20012;-78
2022/07/30 05:36:10;;;;;;;7.70;3.67;;;24.40;79.90;;;;;;6246547;22;20043;-84
2022/07/30 05:38:36;;;;;;;5.70;3.53;;;24.50;80.60;;;;;;6246366;22;20068;-72
2022/07/30 05:41:02;;;;;;;5.85;4.20;;;24.50;80.00;;;;;;6246069;23;20000;-81
2022/07/30 05:43:27;;;;;;;5.00;3.33;;;24.50;80.20;;;;;;6246200;23;19997;-86
2022/07/30 05:45:53;;;;;;;5.07;3.13;;;24.50;80.00;;;;;;6246004;23;20004;-70
2022/07/30 05:48:19;;;;;;;9.85;4.88;;;24.50;79.50;;;;;;6245821;22;20031;-71
2022/07/30 05:50:44;;;;;;;6.43;3.95;;;24.50;79.00;;;;;;6246004;22;20008;-79
2022/07/30 05:53:10;;;;;;;7.40;4.53;;;24.60;79.40;;;;;;6245980;23;19998;-86
2022/07/30 05:55:36;;;;;;;7.43;4.10;;;24.60;79.90;;;;;;6245961;22;20016;-87
2022/07/30 05:58:02;;;;;;;6.18;4.07;;;24.60;79.90;;;;;;6245840;23;19993;-81
2022/07/30 06:00:27;;;;;;;6.90;4.10;;;24.70;79.80;;;;;;6245492;22;20016;-71
2022/07/30 06:02:53;;;;;;;5.20;4.10;;;24.60;79.60;;;;;;6245697;22;20071;-76
2022/07/30 06:05:19;;;;;;;6.80;3.90;;;24.70;79.60;;;;;;6245396;22;20012;-77
2022/07/30 06:07:44;;;;;;;7.28;4.25;;;24.60;80.60;;;;;;6245248;22;20031;-77
2022/07/30 06:10:10;;;;;;;8.40;4.05;;;24.60;80.30;;;;;;6245227;23;20478;-79
2022/07/30 06:12:36;;;;;;;6.82;4.35;;;24.60;80.20;;;;;;6245492;22;20008;-72
2022/07/30 06:15:02;;;;;;;12.60;4.70;;;24.60;80.10;;;;;;6244508;23;20008;-77
2022/07/30 06:17:28;;;;;;;6.40;4.03;;;24.60;80.30;;;;;;6245389;22;20457;-77
2022/07/30 06:19:54;;;;;;;5.88;4.10;;;24.60;80.50;;;;;;6245304;22;20012;-78
2022/07/30 06:22:20;;;;;;;7.65;4.38;;;24.60;80.90;;;;;;6244731;22;20000;-79
2022/07/30 06:24:45;;;;;;;11.07;4.78;;;24.60;81.00;;;;;;6244688;22;20035;-71
2022/07/30 06:27:11;;;;;;;6.05;4.50;;;24.50;81.40;;;;;;6244775;22;20020;-74
2022/07/30 06:29:37;;;;;;;6.03;4.50;;;24.60;81.30;;;;;;6245397;22;20040;-76
2022/07/30 06:32:03;;;;;;;7.15;4.60;;;24.50;81.60;;;;;;6245962;22;20008;-77
2022/07/30 06:34:29;;;;;;;9.73;4.30;;;24.50;82.70;;;;;;6245161;22;20455;-72
2022/07/30 06:36:55;;;;;;;6.32;4.80;;;24.50;82.10;;;;;;6243923;23;20042;-74
2022/07/30 06:39:20;;;;;;;5.20;4.20;;;24.50;81.80;;;;;;6244345;23;20012;-77
2022/07/30 06:41:46;;;;;;;8.02;5.13;;;24.50;81.90;;;;;;6245299;22;20082;-77
2022/07/30 06:44:12;;;;;;;7.85;4.65;;;24.50;81.50;;;;;;6244795;23;20044;-78
2022/07/30 06:46:37;;;;;;;8.32;4.57;;;24.50;81.70;;;;;;6244253;23;20007;-79
2022/07/30 06:49:03;;;;;;;9.80;4.38;;;24.50;81.80;;;;;;6242317;23;20057;-70
2022/07/30 06:51:29;;;;;;;10.23;4.88;;;24.50;81.20;;;;;;6242659;23;20001;-77
2022/07/30 06:53:54;;;;;;;8.30;5.50;;;24.50;81.40;;;;;;6245726;23;20323;-72
2022/07/30 06:56:20;;;;;;;10.93;4.13;;;24.50;81.40;;;;;;6245564;23;21042;-72
2022/07/30 06:58:46;;;;;;;11.85;4.32;;;24.50;81.10;;;;;;6245034;23;20442;-72
2022/07/30 07:01:11;;;;;;;7.85;4.47;;;24.50;81.00;;;;;;6245243;22;20008;-72
2022/07/30 07:03:37;;;;;;;7.38;4.20;;;24.50;81.00;;;;;;6245632;23;20043;-72
2022/07/30 07:06:04;;;;;;;7.60;3.90;;;24.50;80.70;;;;;;6245370;22;20431;-76
2022/07/30 07:08:30;;;;;;;5.50;3.50;;;24.40;81.00;;;;;;6245858;22;20005;-78
2022/07/30 07:10:56;;;;;;;4.32;3.35;;;24.40;80.90;;;;;;6245615;22;20012;-72
2022/07/30 07:13:22;;;;;;;8.45;3.90;;;24.40;80.50;;;;;;6245387;23;20431;-78
2022/07/30 07:15:48;;;;;;;10.57;4.43;;;24.40;80.80;;;;;;6245114;23;20058;-72
2022/07/30 07:18:14;;;;;;;11.85;4.70;;;24.40;80.50;;;;;;6244939;23;20003;-72
2022/07/30 07:20:42;;;;;;;11.00;5.10;;;24.30;80.60;;;;;;6245291;22;20062;-72
2022/07/30 07:23:08;;;;;;;5.40;4.90;;;24.40;80.90;;;;;;6245612;22;20381;-72
2022/07/30 07:25:33;;;;;;;5.47;4.68;;;24.40;80.80;;;;;;6245888;22;20012;-72
2022/07/30 07:27:59;;;;;;;11.35;5.15;;;24.40;80.60;;;;;;6247523;23;20343;-83
2022/07/30 07:30:25;;;;;;;10.60;5.43;;;24.40;80.70;;;;;;6247125;23;20023;-75
2022/07/30 07:32:50;;;;;;;7.95;5.18;;;24.40;81.20;;;;;;6246671;23;20008;-72
2022/07/30 07:35:16;;;;;;;9.35;5.93;;;24.40;81.20;;;;;;6246893;23;20080;-72
2022/07/30 07:37:42;;;;;;;8.38;6.00;;;24.40;81.40;;;;;;6247480;23;20000;-72
2022/07/30 07:40:08;;;;;;;9.65;4.80;;;24.40;82.00;;;;;;6247521;23;20063;-72
2022/07/30 07:42:34;;;;;;;6.93;5.68;;;24.50;81.10;;;;;;6247150;23;20457;-87
2022/07/30 07:44:59;;;;;;;8.27;5.55;;;24.40;80.70;;;;;;6247157;23;20004;-72
2022/07/30 07:47:25;;;;;;;10.85;5.90;;;24.50;81.00;;;;;;6247093;23;20000;-72
2022/07/30 07:49:54;;;;;;;12.18;5.50;;;24.50;81.50;;;;;;6247686;23;20000;-72
2022/07/30 07:52:20;;;;;;;6.30;5.03;;;24.50;81.40;;;;;;6247693;22;20339;-72
2022/07/30 07:54:45;;;;;;;7.88;4.80;;;24.50;81.70;;;;;;6247329;23;20023;-75
2022/07/30 07:57:11;;;;;;;10.55;5.13;;;24.50;81.00;;;;;;6247502;23;20080;-72
2022/07/30 07:59:37;;;;;;;6.20;4.85;;;24.60;81.20;;;;;;6247394;22;20012;-83
2022/07/30 08:02:03;;;;;;;8.70;4.93;;;24.60;80.70;;;;;;6247431;22;20109;-83
2022/07/30 08:04:29;;;;;;;6.28;4.68;;;24.60;81.20;;;;;;6247133;22;20012;-85
2022/07/30 08:06:55;;;;;;;5.18;3.88;;;24.50;81.40;;;;;;6247690;22;20019;-72
2022/07/30 08:09:20;;;;;;;8.77;4.40;;;24.50;81.10;;;;;;6247171;23;20439;-71
2022/07/30 08:11:46;;;;;;;9.23;4.53;;;24.60;81.10;;;;;;6246806;23;19996;-72
2022/07/30 08:14:13;;;;;;;6.70;4.25;;;24.60;81.30;;;;;;6247133;22;20000;-72
2022/07/30 08:16:39;;;;;;;5.90;4.25;;;24.60;81.20;;;;;;6245910;22;20005;-81
2022/07/30 08:19:04;;;;;;;5.28;4.18;;;24.60;81.50;;;;;;6247093;23;20350;-72
2022/07/30 08:21:30;;;;;;;6.88;4.03;;;24.60;81.70;;;;;;6247099;23;20063;-72
2022/07/30 08:23:55;;;;;;;7.45;3.75;;;24.60;81.50;;;;;;6247065;23;20000;-72
2022/07/30 08:26:21;;;;;;;6.65;4.30;;;24.70;81.30;;;;;;6246846;23;20368;-72
2022/07/30 08:28:47;;;;;;;6.35;3.70;;;24.70;80.80;;;;;;6247198;22;20015;-72
2022/07/30 08:31:13;;;;;;;5.20;3.80;;;24.80;80.60;;;;;;6246879;23;20327;-72
2022/07/30 08:33:39;;;;;;;5.32;3.67;;;24.80;80.70;;;;;;6246972;22;20062;-82
2022/07/30 08:36:04;;;;;;;6.05;3.60;;;24.90;80.40;;;;;;6247106;23;20000;-72
2022/07/30 08:38:30;;;;;;;5.85;4.10;;;24.90;79.30;;;;;;6246905;22;20374;-86
2022/07/30 08:40:57;;;;;;;5.50;3.50;;;25.00;78.70;;;;;;6246832;23;20000;-72
2022/07/30 08:43:25;;;;;;;6.45;3.70;;;25.00;78.50;;;;;;6247168;22;20053;-72
2022/07/30 08:45:52;;;;;;;6.45;3.58;;;25.00;79.20;;;;;;6247121;22;20035;-76
2022/07/30 08:48:21;;;;;;;4.40;2.90;;;25.10;78.90;;;;;;6246729;22;20001;-72
2022/07/30 08:50:47;;;;;;;4.78;3.10;;;25.10;77.40;;;;;;6247493;22;20008;-73
2022/07/30 08:53:14;;;;;;;8.77;3.60;;;25.10;75.70;;;;;;6247332;22;20070;-76
2022/07/30 08:55:40;;;;;;;5.13;2.80;;;25.10;75.50;;;;;;6246739;22;20020;-85
2022/07/30 08:58:31;;;;;;;3.63;2.67;;;25.10;75.80;;;;;;6246476;22;20000;-83
2022/07/30 09:00:57;;;;;;;3.85;2.70;;;25.10;75.40;;;;;;6247268;22;20043;-84
2022/07/30 09:03:22;;;;;;;7.15;2.70;;;25.10;75.00;;;;;;6246989;23;20003;-84
2022/07/30 09:05:48;;;;;;;4.45;2.97;;;25.20;74.80;;;;;;6246672;22;20008;-72
2022/07/30 09:08:14;;;;;;;3.10;2.80;;;25.30;73.80;;;;;;6246704;23;20023;-73
2022/07/30 09:10:41;;;;;;;2.92;2.50;;;25.30;73.50;;;;;;6246608;23;20007;-72
2022/07/30 09:13:23;;;;;;;4.55;2.63;;;25.40;73.00;;;;;;6246538;22;20055;-73
2022/07/30 09:15:48;;;;;;;3.05;2.22;;;25.50;72.30;;;;;;6246638;22;20071;-85
2022/07/30 09:18:35;;;;;;;4.82;2.40;;;25.50;70.30;;;;;;6246539;22;20035;-85
2022/07/30 09:21:27;;;;;;;5.68;2.50;;;25.50;69.80;;;;;;6246566;22;20009;-72
2022/07/30 09:23:58;;;;;;;3.97;2.40;;;25.60;69.60;;;;;;6246540;22;20454;-72
2022/07/30 09:26:24;;;;;;;4.20;2.17;;;25.60;69.20;;;;;;6246343;22;20000;-72
2022/07/30 09:28:50;;;;;;;2.33;2.13;;;25.70;69.60;;;;;;6246855;22;20019;-74
2022/07/30 09:31:17;;;;;;;3.08;2.40;;;25.70;70.10;;;;;;6246471;22;20004;-85
2022/07/30 09:33:44;;;;;;;3.00;2.03;;;25.70;70.40;;;;;;6246451;22;20004;-83
2022/07/30 09:36:15;;;;;;;3.38;2.58;;;25.70;69.90;;;;;;6246381;22;19997;-84
2022/07/30 09:38:41;;;;;;;4.45;2.55;;;25.80;69.40;;;;;;6246465;22;20074;-71
2022/07/30 09:41:07;;;;;;;3.75;2.60;;;25.80;69.50;;;;;;6246582;23;20418;-72
2022/07/30 09:43:41;;;;;;;3.67;2.78;;;25.80;70.00;;;;;;6246055;23;20419;-72
2022/07/30 09:46:07;;;;;;;9.13;2.80;;;25.80;70.20;;;;;;6246164;22;20075;-72
2022/07/30 09:48:32;;;;;;;4.68;2.90;;;25.80;70.70;;;;;;6246241;23;20028;-71
2022/07/30 09:50:58;;;;;;;7.47;2.75;;;25.80;71.00;;;;;;6245665;23;20003;-72
2022/07/30 09:53:25;;;;;;;4.20;2.67;;;25.90;71.40;;;;;;6246336;23;20004;-85
2022/07/30 09:55:50;;;;;;;5.13;2.75;;;25.90;70.60;;;;;;6246659;22;20080;-85
2022/07/30 09:58:16;;;;;;;4.20;2.75;;;25.90;70.30;;;;;;6246204;22;20331;-84
2022/07/30 10:00:43;;;;;;;4.30;2.60;;;26.00;70.40;;;;;;6246249;23;20004;-72
2022/07/30 10:03:21;;;;;;;3.55;2.45;;;26.00;70.10;;;;;;6246114;22;19996;-72
2022/07/30 10:05:55;;;;;;;4.07;2.40;;;26.10;69.80;;;;;;6246171;22;20000;-76
2022/07/30 10:08:37;;;;;;;5.38;3.00;;;26.20;69.20;;;;;;6246685;22;20004;-79
2022/07/30 10:11:02;;;;;;;;;;;26.40;67.80;;;;;;6246901;23;20007;-79
2022/07/30 10:13:28;;;;;;;4.80;2.85;;;26.50;65.90;;;;;;6246384;22;19900;-84
2022/07/30 10:15:54;;;;;;;3.92;3.10;;;26.60;65.90;;;;;;6247255;22;20601;-87
2022/07/30 10:18:20;;;;;;;4.80;3.17;;;26.60;66.30;;;;;;6250231;22;20018;-85
2022/07/30 10:20:46;;;;;;;4.40;2.75;;;26.70;66.80;;;;;;6248550;22;20452;-71
2022/07/30 10:23:13;;;;;;;3.10;2.55;;;26.80;66.50;;;;;;6247168;22;20390;-72
2022/07/30 10:25:39;;;;;;;5.85;3.13;;;26.90;66.10;;;;;;6246777;23;20007;-82
2022/07/30 10:28:05;;;;;;;2.80;2.03;;;27.00;65.50;;;;;;6245810;22;20100;-72
2022/07/30 10:30:32;;;;;;;4.90;3.00;;;27.10;63.50;;;;;;6246074;22;20004;-73
2022/07/30 10:33:00;;;;;;;4.40;2.88;;;27.20;63.60;;;;;;6246013;22;20411;-72
2022/07/30 10:35:26;;;;;;;8.35;2.83;;;27.30;64.40;;;;;;6245529;22;20016;-71
2022/07/30 10:37:55;;;;;;;4.78;2.50;;;27.50;64.70;;;;;;6245634;22;20447;-72
2022/07/30 10:40:29;;;;;;;5.30;2.45;;;27.60;62.40;;;;;;6245423;22;20043;-80
2022/07/30 10:43:16;;;;;;;2.30;1.90;;;27.60;61.50;;;;;;6245557;22;20418;-73
2022/07/30 10:46:05;;;;;;;6.38;2.08;;;27.70;60.50;;;;;;6245319;22;20484;-74
2022/07/30 10:48:33;;;;;;;3.72;2.13;;;27.70;60.30;;;;;;6246103;22;20031;-72
2022/07/30 10:50:59;;;;;;;2.90;2.22;;;27.80;59.40;;;;;;6246068;22;20016;-80
2022/07/30 10:53:38;;;;;;;3.63;2.35;;;27.90;58.40;;;;;;6246003;22;20430;-71
2022/07/30 10:56:18;;;;;;;3.03;1.98;;;28.00;58.30;;;;;;6246470;22;20378;-71
2022/07/30 10:58:56;;;;;;;3.70;1.70;;;28.00;57.90;;;;;;6245437;22;20008;-77
2022/07/30 11:01:22;;;;;;;4.25;2.20;;;28.10;57.80;;;;;;6245962;23;20004;-71
2022/07/30 11:04:23;;;;;;;3.72;1.98;;;28.20;58.40;;;;;;6247818;22;20004;-84
2022/07/30 11:06:51;;;;;;;4.07;2.00;;;28.20;58.20;;;;;;6248137;22;20007;-83
2022/07/30 11:09:39;;;;;;;2.72;1.90;;;28.20;56.80;;;;;;6248311;22;20015;-72
2022/07/30 11:12:06;;;;;;;1.75;1.55;;;28.30;56.80;;;;;;6244674;22;20039;-79
2022/07/30 11:14:44;;;;;;;2.03;1.30;;;28.40;56.80;;;;;;6244686;22;20031;-72
2022/07/30 11:17:15;;;;;;;3.20;1.95;;;28.40;56.20;;;;;;6247239;23;20019;-72
2022/07/30 11:20:08;;;;;;;3.17;1.70;;;28.50;56.40;;;;;;6247704;22;20008;-73
2022/07/30 11:22:43;;;;;;;2.00;1.63;;;28.60;55.20;;;;;;6248093;22;20035;-84
2022/07/30 11:25:28;;;;;;;3.53;1.58;;;28.60;54.80;;;;;;6247620;22;20003;-74
2022/07/30 11:27:55;;;;;;;1.50;1.40;;;28.70;54.50;;;;;;6247147;22;20016;-82
2022/07/30 11:30:21;;;;;;;5.93;1.60;;;28.70;54.20;;;;;;6247870;22;20005;-75
2022/07/30 11:32:52;;;;;;;2.25;1.58;;;28.90;54.20;;;;;;6247642;23;20316;-71
2022/07/30 11:35:17;;;;;;;1.20;1.10;;;29.00;53.40;;;;;;6247600;22;20004;-72
2022/07/30 11:38:02;;;;;;;1.80;1.40;;;29.00;51.80;;;;;;6243550;23;20245;-72
2022/07/30 11:40:58;;;;;;;4.13;1.48;;;29.10;50.20;;;;;;6243730;22;20366;-71
2022/07/30 11:43:31;;;;;;;2.53;1.42;;;29.10;50.90;;;;;;6245739;23;20423;-71
2022/07/30 11:46:22;;;;;;;4.43;1.50;;;29.10;51.90;;;;;;6247209;22;20304;-71
2022/07/30 11:49:07;;;;;;;1.27;1.10;;;29.20;52.30;;;;;;6247074;22;20012;-71
2022/07/30 11:51:45;;;;;;;1.65;1.20;;;29.30;51.90;;;;;;6246902;22;20444;-72
2022/07/30 11:54:11;;;;;;;3.50;1.25;;;29.40;51.50;;;;;;6247366;22;20447;-71
2022/07/30 11:56:58;;;;;;;2.08;1.33;;;29.40;51.40;;;;;;6247474;22;20039;-71
2022/07/30 11:59:24;;;;;;;1.98;1.20;;;29.40;50.30;;;;;;6246897;22;20008;-72
2022/07/30 12:01:52;;;;;;;1.75;1.15;;;29.40;50.60;;;;;;6247271;23;20001;-71
2022/07/30 12:04:18;;;;;;;3.75;1.10;;;29.40;50.10;;;;;;6247517;22;20008;-82
2022/07/30 12:06:46;;;;;;;2.55;1.30;;;29.50;49.90;;;;;;6246751;22;20024;-83
2022/07/30 12:09:21;;;;;;;2.83;1.33;;;29.50;50.00;;;;;;6247065;22;20000;-83
2022/07/30 12:11:46;;;;;;;2.25;1.35;;;29.50;50.60;;;;;;6246869;22;20081;-71
2022/07/30 12:14:12;;;;;;;1.77;1.50;;;29.50;50.80;;;;;;6246814;22;20008;-72
2022/07/30 12:16:41;;;;;;;2.15;1.40;;;29.50;50.50;;;;;;6247183;22;20027;-78
2022/07/30 12:19:06;;;;;;;1.75;1.20;;;29.50;51.10;;;;;;6247353;22;20016;-72
2022/07/30 12:21:33;;;;;;;3.65;1.63;;;29.60;50.60;;;;;;6246708;22;20490;-71
2022/07/30 12:24:00;;;;;;;1.98;1.20;;;29.60;50.90;;;;;;6247259;22;20009;-71
2022/07/30 12:26:28;;;;;;;0.90;0.82;;;29.70;50.50;;;;;;6246933;22;20011;-71
2022/07/30 12:28:56;;;;;;;1.42;1.20;;;29.70;49.60;;;;;;6246952;22;20012;-72
2022/07/30 12:31:22;;;;;;;1.38;0.98;;;29.70;48.90;;;;;;6247106;22;20331;-83
2022/07/30 12:33:48;;;;;;;2.47;1.35;;;29.80;48.60;;;;;;6246259;23;20007;-80
2022/07/30 12:36:28;;;;;;;2.47;1.20;;;29.80;48.90;;;;;;6246352;22;20004;-77
2022/07/30 12:38:56;;;;;;;1.65;1.00;;;29.70;49.30;;;;;;6246715;22;20336;-72
2022/07/30 12:41:23;;;;;;;2.72;0.70;;;29.60;49.10;;;;;;6246304;22;20000;-81
2022/07/30 12:43:50;;;;;;;2.33;1.10;;;29.60;48.60;;;;;;6246510;22;20028;-73
2022/07/30 12:46:19;;;;;;;3.83;1.10;;;29.60;47.90;;;;;;6246408;22;20004;-71
2022/07/30 12:49:02;;;;;;;1.58;1.00;;;29.50;48.30;;;;;;6246961;22;20019;-73
2022/07/30 12:51:31;;;;;;;2.33;1.67;;;29.50;49.00;;;;;;6245984;22;20008;-71
2022/07/30 12:53:57;;;;;;;5.47;1.13;;;29.50;48.70;;;;;;6246824;22;20035;-72